Latest Weather Observations for Beaudesert AWS

IDQ60901

Issued at 7:45 am EST Tuesday 2 September 2014 (issued every 10 minutes, with the page automatically refreshed every 10 minutes)

About weather observations | Map of Brisbane area stations | Latest observations for Brisbane area | Other Formats
Station Details ID: 040983 Name: BEAUDESERT DRUMLEY STREET Lat: -27.97 Lon: 152.99 Height: 47.81 m
Data from the previous 72 hours. | See also: Recent months at Beaudesert AWS
Date/Time
EST
Tmp

°C
App
Tmp
°C
Dew
Point
°C
Rel
Hum
%
Delta-T

°C
Wind Press
QNH
hPa
Press
MSL
hPa
Rain
since
9 am
mm
Dir
 
Spd
km/h
Gust
km/h
Spd
kts
Gust
kts
02/07:30am 11.3 11.1 10.4 94 0.5 S 2 4 1 2 1014.4 1014.3 0.0
02/07:00am 10.6 10.2 9.7 94 0.5 ESE 2 4 1 2 1014.3 1014.2 0.0
02/06:30am 9.6 9.3 8.5 93 0.5 CALM 0 0 0 0 1014.2 1014.1 0.0
02/06:00am 10.0 9.8 8.9 93 0.5 WNW 0 0 0 0 1013.9 1013.8 0.0
02/05:30am 9.7 9.4 8.6 93 0.5 CALM 0 0 0 0 1014.1 1014.0 0.0
02/05:00am 10.3 10.1 9.2 93 0.5 CALM 0 0 0 0 1013.8 1013.7 0.0
02/04:30am 10.5 10.4 9.4 93 0.6 CALM 0 0 0 0 1013.8 1013.7 0.0
02/04:00am 10.0 9.7 8.8 92 0.6 CALM 0 0 0 0 1013.9 1013.8 0.0
02/03:30am 11.1 11.2 10.2 94 0.5 CALM 0 2 0 1 1013.9 1013.8 0.0
02/03:00am 10.5 10.4 9.4 93 0.6 CALM 0 0 0 0 1014.2 1014.1 0.0
02/02:30am 11.0 11.0 9.9 93 0.6 CALM 0 0 0 0 1014.3 1014.2 0.0
02/02:00am 10.3 10.1 9.1 92 0.6 CALM 0 0 0 0 1014.5 1014.4 0.0
02/01:30am 10.7 10.6 9.5 92 0.6 CALM 0 4 0 2 1014.7 1014.6 0.0
02/01:00am 12.2 12.6 11.1 93 0.6 CALM 0 0 0 0 1015.2 1015.1 0.0
02/12:30am 11.7 11.9 10.4 92 0.7 CALM 0 0 0 0 1015.6 1015.5 0.0
02/12:00am 11.7 11.5 10.3 91 0.7 WSW 2 4 1 2 1015.6 1015.5 0.0
 
Date/Time
EST
Tmp

°C
App
Tmp
°C
Dew
Point
°C
Rel
Hum
%
Delta-T

°C
Wind Press
QNH
hPa
Press
MSL
hPa
Rain
since
9 am
mm
Dir
 
Spd
km/h
Gust
km/h
Spd
kts
Gust
kts
01/11:30pm 13.8 14.6 12.5 92 0.7 CALM 0 4 0 2 1015.5 1015.4 0.0
01/11:00pm 12.8 13.1 11.0 89 0.9 CALM 0 0 0 0 1015.7 1015.6 0.0
01/10:30pm 13.5 14.0 11.6 88 1.0 CALM 0 0 0 0 1015.8 1015.7 0.0
01/10:00pm 13.9 14.3 11.2 84 1.4 CALM 0 0 0 0 1015.8 1015.7 0.0
01/09:30pm 15.4 16.2 12.5 83 1.6 CALM 0 0 0 0 1015.8 1015.7 0.0
01/09:00pm 16.8 17.6 13.7 82 1.8 ENE 2 6 1 3 1016.0 1015.9 0.0
01/08:30pm 16.7 17.6 12.8 78 2.2 CALM 0 4 0 2 1016.1 1016.0 0.0
01/08:00pm 17.5 18.0 12.8 74 2.6 E 2 6 1 3 1016.1 1016.0 0.0
01/07:30pm 18.5 18.7 13.1 71 3.0 N 4 9 2 5 1016.1 1016.0 0.0
01/07:00pm 19.2 18.5 13.2 68 3.4 N 9 17 5 9 1015.8 1015.7 0.0
01/06:30pm 19.9 18.6 12.4 62 4.2 NNE 11 19 6 10 1015.1 1015.0 0.0
01/06:00pm 20.6 19.1 11.8 57 4.9 NNE 11 20 6 11 1014.7 1014.6 0.0
01/05:30pm 21.8 19.8 11.5 52 5.7 NNE 13 22 7 12 1014.5 1014.4 0.0
01/05:00pm 23.3 21.5 10.7 45 7.0 NNE 11 17 6 9 1014.4 1014.3 0.0
01/04:30pm 25.1 22.8 5.8 29 9.9 N 7 13 4 7 1014.0 1013.9 0.0
01/04:00pm 25.4 23.1 5.6 28 10.1 NW 7 13 4 7 1013.8 1013.7 0.0
01/03:30pm 25.5 22.8 5.7 28 10.2 NNW 9 19 5 10 1013.7 1013.6 0.0
01/03:00pm 25.3 22.6 5.5 28 10.1 NW 9 17 5 9 1014.3 1014.2 0.0
01/02:30pm 25.2 22.6 5.9 29 9.9 NW 9 13 5 7 1014.5 1014.4 0.0
01/02:00pm 25.8 23.5 7.4 31 9.7 WNW 9 17 5 9 1015.0 1014.9 0.0
01/01:30pm 24.6 20.6 4.9 28 9.9 WNW 15 35 8 19 1015.3 1015.2 0.0
01/01:00pm 23.5 22.1 8.8 39 7.9 W 6 11 3 6 1015.9 1015.8 0.0
01/12:30pm 23.3 22.0 9.3 41 7.6 NNW 6 11 3 6 1016.5 1016.4 0.0
01/12:00pm 23.9 22.8 10.6 43 7.4 NW 7 17 4 9 1016.9 1016.8 0.0
01/11:30am 22.6 22.4 11.7 50 6.1 NW 4 7 2 4 1017.5 1017.4 0.0
01/11:00am 22.6 22.7 12.8 54 5.6 WNW 4 7 2 4 1018.3 1018.2 0.0
01/10:30am 21.5 20.9 12.4 56 5.2 NW 7 11 4 6 1018.8 1018.7 0.0
01/10:00am 21.1 21.3 13.0 60 4.6 N 4 7 2 4 1019.3 1019.2 0.0
01/09:30am 19.9 20.1 13.1 65 3.9 WNW 4 7 2 4 1019.6 1019.6 0.0
01/09:00am 19.0 20.1 13.4 70 3.2 CALM 0 4 0 2 1019.7 1019.7 0.0
01/08:30am 16.9 17.8 13.0 78 2.2 CALM 0 0 0 0 1020.0 1020.0 0.0
01/08:00am 15.0 15.8 12.5 85 1.4 CALM 0 2 0 1 1019.8 1019.8 0.0
01/07:30am 13.9 14.5 11.9 88 1.1 CALM 0 0 0 0 1019.6 1019.6 0.0
01/07:00am 13.3 13.9 12.0 92 0.7 CALM 0 0 0 0 1019.2 1019.2 0.0
01/06:30am 11.7 11.9 10.4 92 0.7 CALM 0 2 0 1 1018.9 1018.9 0.0
01/06:00am 11.9 11.8 10.8 93 0.6 ESE 2 4 1 2 1018.9 1018.9 0.0
01/05:30am 11.5 11.6 10.2 92 0.7 CALM 0 0 0 0 1018.6 1018.6 0.0
01/05:00am 11.6 11.7 10.0 90 0.8 CALM 0 0 0 0 1018.3 1018.3 0.0
01/04:30am 12.6 13.0 11.3 92 0.7 CALM 0 0 0 0 1018.1 1018.1 0.0
01/04:00am 12.1 12.4 10.8 92 0.7 CALM 0 0 0 0 1018.3 1018.3 0.0
01/03:30am 12.7 13.0 10.9 89 0.9 CALM 0 0 0 0 1018.3 1018.3 0.0
01/03:00am 13.0 13.4 11.1 88 1.0 CALM 0 0 0 0 1018.2 1018.2 0.0
01/02:30am 13.6 14.2 11.8 89 1.0 CALM 0 2 0 1 1018.4 1018.4 0.0
01/02:00am 13.7 14.3 11.9 89 1.0 CALM 0 2 0 1 1018.6 1018.6 0.0
01/01:30am 13.3 13.8 11.7 90 0.9 CALM 0 0 0 0 1018.7 1018.7 0.0
01/01:00am 13.2 13.6 11.4 89 1.0 CALM 0 0 0 0 1018.7 1018.7 0.0
01/12:30am 12.8 13.1 11.0 89 0.9 CALM 0 0 0 0 1018.8 1018.8 0.0
01/12:00am 12.9 13.2 11.0 88 1.0 CALM 0 0 0 0 1018.8 1018.8 0.0
 
Date/Time
EST
Tmp

°C
App
Tmp
°C
Dew
Point
°C
Rel
Hum
%
Delta-T

°C
Wind Press
QNH
hPa
Press
MSL
hPa
Rain
since
9 am
mm
Dir
 
Spd
km/h
Gust
km/h
Spd
kts
Gust
kts
31/11:30pm 12.6 12.8 10.7 88 1.0 CALM 0 0 0 0 1018.8 1018.8 0.0
31/11:00pm 12.6 12.8 10.7 88 1.0 CALM 0 0 0 0 1018.8 1018.8 0.0
31/10:30pm 12.8 13.0 10.5 86 1.2 CALM 0 0 0 0 1018.9 1018.9 0.0
31/10:00pm 14.1 14.7 12.0 87 1.1 CALM 0 0 0 0 1018.7 1018.7 0.0
31/09:30pm 14.5 15.3 12.4 87 1.1 CALM 0 0 0 0 1018.6 1018.6 0.0
31/09:00pm 13.8 14.3 11.5 86 1.2 CALM 0 0 0 0 1018.7 1018.7 0.0
31/08:30pm 14.2 14.7 11.5 84 1.4 CALM 0 0 0 0 1018.5 1018.5 0.0
31/08:00pm 15.1 15.5 11.1 77 2.1 CALM 0 4 0 2 1018.2 1018.2 0.0
31/07:30pm 17.1 17.4 12.2 73 2.7 NNE 2 6 1 3 1017.9 1017.9 0.0
31/07:00pm 18.0 17.9 12.2 69 3.2 N 4 6 2 3 1017.6 1017.6 0.0
31/06:30pm 18.2 18.6 12.4 69 3.2 NE 2 6 1 3 1017.2 1017.2 0.0
31/06:00pm 18.9 19.1 11.9 64 3.9 N 2 6 1 3 1016.8 1016.8 0.0
31/05:30pm 19.8 19.6 11.8 60 4.4 ENE 4 9 2 5 1016.4 1016.4 0.0
31/05:00pm 20.9 19.0 11.8 56 5.1 NE 13 20 7 11 1016.0 1016.0 0.0
31/04:30pm 22.4 20.9 11.8 51 6.0 NE 11 22 6 12 1015.6 1015.6 0.0
31/04:00pm 22.6 21.0 11.4 49 6.3 ENE 11 20 6 11 1015.2 1015.2 0.0
31/03:30pm 23.9 23.0 9.1 39 8.0 W 4 7 2 4 1015.0 1015.0 0.0
31/03:00pm 25.1 23.7 9.4 37 8.6 WNW 7 11 4 6 1015.0 1015.0 0.0
31/02:30pm 24.8 23.3 8.3 35 8.8 NNW 6 11 3 6 1015.0 1015.0 0.0
31/02:00pm 24.6 23.3 9.3 38 8.3 WSW 6 11 3 6 1015.4 1015.4 0.0
31/01:30pm 24.0 22.5 9.2 39 8.0 WSW 7 15 4 8 1015.7 1015.7 0.0
31/01:00pm 23.6 21.8 9.6 41 7.6 SSW 9 19 5 10 1016.0 1016.0 0.0
31/12:30pm 23.6 22.5 10.6 44 7.2 SSW 7 15 4 8 1016.5 1016.5 0.0
31/12:00pm 22.4 21.0 9.6 44 6.9 S 7 17 4 9 1017.0 1017.0 0.0
31/11:30am 21.9 20.7 9.4 45 6.7 S 6 15 3 8 1017.6 1017.6 0.0
31/11:00am 21.7 19.6 9.6 46 6.5 SW 11 22 6 12 1018.1 1018.1 0.0
31/10:30am 21.0 19.5 10.5 51 5.7 S 9 17 5 9 1018.6 1018.6 0.0
31/10:00am 20.3 18.0 10.4 53 5.4 SW 13 20 7 11 1018.9 1018.9 0.0
31/09:30am 19.6 18.8 11.1 58 4.7 WNW 6 15 3 8 1018.8 1018.8 0.0
31/09:00am 18.1 18.8 12.3 69 3.2 CALM 0 4 0 2 1019.3 1019.3 0.0
31/08:30am 15.3 15.3 11.1 76 2.2 S 2 4 1 2 1019.5 1019.5 0.0
31/08:00am 13.1 13.2 10.3 83 1.4 CALM 0 0 0 0 1019.5 1019.5 0.0
31/07:30am 11.1 10.9 9.0 87 1.0 CALM 0 0 0 0 1019.4 1019.4 0.0
31/07:00am 10.0 8.9 8.6 91 0.7 S 4 6 2 3 1019.4 1019.4 0.0
31/06:30am 9.4 8.6 8.2 92 0.6 SE 2 4 1 2 1019.2 1019.2 0.0
31/06:00am 8.9 7.9 7.4 90 0.7 SSW 2 4 1 2 1019.0 1019.0 0.0
31/05:30am 9.9 9.2 8.7 92 0.6 SE 2 4 1 2 1018.6 1018.6 0.0
31/05:00am 9.6 9.2 8.2 91 0.7 CALM 0 0 0 0 1018.4 1018.4 0.0
31/04:30am 9.8 8.6 8.2 90 0.8 SSE 4 6 2 3 1018.4 1018.4 0.0
31/04:00am 10.9 10.7 9.0 88 0.9 CALM 0 0 0 0 1018.2 1018.2 0.0
31/03:30am 11.0 10.4 9.1 88 0.9 ESE 2 4 1 2 1018.0 1018.0 0.0
31/03:00am 11.3 11.1 9.2 87 1.0 CALM 0 0 0 0 1018.1 1018.1 0.0
31/02:30am 11.1 10.9 9.2 88 1.0 CALM 0 0 0 0 1018.2 1018.2 0.0
31/02:00am 12.0 12.0 9.7 86 1.2 CALM 0 0 0 0 1018.3 1018.3 0.0
31/01:30am 11.7 11.2 9.4 86 1.2 ESE 2 4 1 2 1018.4 1018.4 0.0
31/01:00am 11.9 11.8 9.5 85 1.2 CALM 0 0 0 0 1018.5 1018.5 0.0
31/12:30am 12.8 13.0 10.5 86 1.2 CALM 0 0 0 0 1018.5 1018.5 0.0
31/12:00am 13.9 14.2 10.9 82 1.6 CALM 0 0 0 0 1018.5 1018.5 0.0
 
Date/Time
EST
Tmp

°C
App
Tmp
°C
Dew
Point
°C
Rel
Hum
%
Delta-T

°C
Wind Press
QNH
hPa
Press
MSL
hPa
Rain
since
9 am
mm
Dir
 
Spd
km/h
Gust
km/h
Spd
kts
Gust
kts
30/11:30pm 14.6 15.1 11.6 82 1.6 CALM 0 0 0 0 1018.6 1018.6 0.0
30/11:00pm 14.8 15.4 11.8 82 1.6 CALM 0 0 0 0 1018.7 1018.7 0.0
30/10:30pm 14.5 15.0 11.5 82 1.6 CALM 0 0 0 0 1018.6 1018.6 0.0
30/10:00pm 14.2 14.4 10.6 79 1.9 CALM 0 0 0 0 1018.5 1018.5 0.0
30/09:30pm 14.6 14.9 11.0 79 1.9 CALM 0 0 0 0 1018.4 1018.4 0.0
30/09:00pm 15.8 15.5 11.4 75 2.4 N 4 4 2 2 1018.3 1018.3 0.0
30/08:30pm 15.9 15.8 10.7 71 2.8 N 2 4 1 2 1018.2 1018.2 0.0
30/08:00pm 16.0 15.8 10.3 69 3.0 N 2 4 1 2 1018.0 1018.0 0.0
30/07:30pm 16.3 15.9 9.7 65 3.5 N 2 6 1 3 1017.8 1017.8 0.0
30/07:00pm 18.1 18.1 9.7 58 4.4 CALM 0 0 0 0 1017.6 1017.6 0.0
30/06:30pm 17.9 17.7 9.0 56 4.6 CALM 0 0 0 0 1017.2 1017.2 0.0
30/06:00pm 18.8 18.0 8.2 50 5.5 SSE 2 4 1 2 1017.0 1017.0 0.0
30/05:30pm 19.9 18.3 7.9 46 6.2 SSW 6 7 3 4 1016.8 1016.8 0.0
30/05:00pm 21.3 19.5 7.9 42 7.0 S 7 13 4 7 1016.5 1016.5 0.0
30/04:30pm 22.0 20.3 8.2 41 7.3 S 7 13 4 7 1016.4 1016.4 0.0
30/04:00pm 22.4 18.7 8.1 40 7.5 S 17 26 9 14 1016.3 1016.3 0.0
30/03:30pm 22.4 18.8 8.5 41 7.4 S 17 28 9 15 1016.1 1016.1 0.0
30/03:00pm 22.3 18.3 8.4 41 7.3 SSW 19 28 10 15 1016.1 1016.1 0.0
30/02:30pm 22.8 20.1 8.9 41 7.4 SW 13 19 7 10 1016.2 1016.2 0.0
30/02:00pm 22.4 20.0 8.5 41 7.4 SSW 11 22 6 12 1016.3 1016.3 0.0
30/01:30pm 22.4 19.9 9.6 44 6.9 S 13 24 7 13 1016.6 1016.6 0.0
30/01:00pm 22.5 19.6 9.6 44 7.0 SSW 15 26 8 14 1017.0 1017.0 0.0
30/12:30pm 21.8 18.3 8.7 43 6.9 SW 17 28 9 15 1017.4 1017.4 0.0
30/12:00pm 21.4 18.3 9.0 45 6.6 SSW 15 26 8 14 1017.9 1017.9 0.0
30/11:30am 21.0 17.8 8.6 45 6.5 SSW 15 26 8 14 1018.4 1018.4 0.0
30/11:00am 20.6 17.3 7.9 44 6.6 SSW 15 24 8 13 1019.0 1019.0 0.0
30/10:30am 19.4 16.1 6.5 43 6.5 WSW 13 19 7 10 1019.4 1019.4 0.0
30/10:00am 17.8 16.3 8.4 54 4.8 W 6 7 3 4 1019.7 1019.7 0.0
30/09:30am 16.3 15.2 8.3 59 4.1 SW 4 7 2 4 1020.1 1020.1 0.0
30/09:00am 14.4 13.5 7.9 65 3.2 W 2 7 1 4 1020.6 1020.6 0.0
30/08:30am 11.8 10.9 7.7 76 2.0 W 2 6 1 3 1020.8 1020.8 0.0
30/08:00am 10.2 9.1 7.1 81 1.5 SSE 2 4 1 2 1020.8 1020.8 0.0

Latest Capital City Observations: Canberra | Sydney | Melbourne | Brisbane | Adelaide | Perth | Hobart | Darwin

Other Formats:

Comma delimited format used in spreadsheet applications
http://www.bom.gov.au/fwo/IDQ60901/IDQ60901.95575.axf

JavaScript Object Notation format (JSON) in row-major order
http://www.bom.gov.au/fwo/IDQ60901/IDQ60901.95575.json